Mackinaw City, MI

9:41 AM EDT on May 23, 2015 (GMT -0400)
Mackinaw Bridge | | Change Station
CLOSE
Current Station
Personal Weather Station
Location: Mackinaw City, MI
Elevation: 587 ft
Nearby Weather Stations

Elev 587 ft 45.79 °N, 84.73 °W | Updated 6 minutes ago

Clear
Clear
71.2 °F
Feels Like 77 °F
N
0.0
Wind Variable Wind from North

Today
High -- | Low -- °F
--% Chance of Precip.
Yesterday
High -- | Low -- °F
Precip. -- in
5:59 AM 9:12 PM
Waxing Crescent, 30% visible
Pressure 30.26 in
Visibility 10.0 miles
Clouds Clear
Heat Index 77 °F
Dew Point 42 °F
Humidity 35%
Rainfall -999.00 in
Snow Depth Not available.
UV 4 out of 12
Pollen 9.50 out of 12
Air Quality Not available.
Flu Activity Sporadic
METAR KMCD 231335Z AUTO 22011G21KT 170V290 10SM CLR 13/00 A3026 RMK AO2 T01310003

More Conditions Fewer Conditions

Pressure 30.26 in
Visibility 10.0 miles
Clouds Clear
Heat Index 77 °F
Dew Point 42 °F
Humidity 35%
Rainfall -999.00 in
Snow Depth Not available.
UV 4 out of 12
Pollen 9.50 out of 12
Air Quality Not available.
Flu Activity Sporadic
METAR KMCD 231335Z AUTO 22011G21KT 170V290 10SM CLR 13/00 A3026 RMK AO2 T01310003

More Conditions Fewer Conditions

Nowcast | as of 8:00 am EDT on May 23, 2015

At 9 am...clear. Temperature 50. Southwest winds 13 mph. At 11 am...clear. Temperature 59. West winds 14 mph with gusts to 25 mph. At 1 PM...mostly clear. Temperature 65. West winds 16 mph. At 3 PM...mostly clear. Temperature 67. West winds 17 mph.

×

10-Day Weather Forecast

Almanac

Astronomy

May. 23, 2015 Rise Set
Actual Time
Civil Twilight
Nautical Twilight
Astronomical Twilight
Moon
Length of Visible Light
Length of Day
Tomorrow will be .
, % of the Moon is Illuminated

Today's Extremes

State Highs State Lows

Community

WunderPhotos

Upload Photos

1,823,467 photos uploaded!

WunderBlogs® & News

Nearby

Air Quality

  Air Quality AQ Index Pollutant
Not available.

Snow Depth

Station Depth Elevation

Earthquake Activity

City Distance Mag. Time & Date
Minimum magnitude displayed is 2.5.

Coastal Water Temperatures

Place Temperature

Stations

Nearby Weather Stations

Station Location Temp. Windchill Dew Point Humidity Wind Precip. Elev Updated Type